Time;durP1;ratioP1;P1;durP2;ratioP2;P2;SDS_P1;SDS_P2;PMS_P1;PMS_P2;Temp;Humidity;BMP_temperature;BMP_pressure;BME280_temperature;BME280_humidity;BME280_pressure;Samples;Min_cycle;Max_cycle;Signal;HPM_P1;HPM_P2
2021/01/19 00:02:11;;;;;;;16.48;9.55;;;;;;;0.04;85.82;100487.59;1603451;88;21662;-77
2021/01/19 00:04:39;;;;;;;16.82;10.35;;;;;;;0.04;85.85;100491.52;1603397;88;21214;-77
2021/01/19 00:07:05;;;;;;;15.60;9.15;;;;;;;0.04;85.91;100484.13;1599528;88;21234;-77
2021/01/19 00:09:32;;;;;;;17.55;10.15;;;;;;;0.05;85.95;100485.34;1603309;89;21190;-77
2021/01/19 00:11:58;;;;;;;17.50;9.63;;;;;;;0.04;85.98;100483.66;1603474;89;21262;-77
2021/01/19 00:14:24;;;;;;;12.33;8.28;;;;;;;0.06;86.04;100485.72;1603396;88;21213;-77
2021/01/19 00:16:51;;;;;;;11.20;8.20;;;;;;;0.07;86.08;100480.02;1599756;88;21199;-77
2021/01/19 00:19:17;;;;;;;14.93;9.88;;;;;;;0.06;86.11;100480.48;1603776;88;21289;-77
2021/01/19 00:21:43;;;;;;;18.27;10.78;;;;;;;0.07;86.16;100478.20;1603787;89;21614;-77
2021/01/19 00:24:10;;;;;;;13.68;8.40;;;;;;;0.08;86.20;100477.27;1604029;89;21237;-77
2021/01/19 00:26:37;;;;;;;13.88;8.70;;;;;;;0.09;86.23;100477.66;1603821;89;21250;-77
2021/01/19 00:29:03;;;;;;;13.75;9.00;;;;;;;0.11;86.27;100473.13;1603927;88;21224;-77
2021/01/19 00:31:29;;;;;;;13.28;8.95;;;;;;;0.12;86.30;100472.66;1603578;88;21174;-77
2021/01/19 00:33:55;;;;;;;13.53;8.68;;;;;;;0.14;86.35;100477.36;1603721;88;21251;-78
2021/01/19 00:36:23;;;;;;;13.15;9.53;;;;;;;0.14;86.39;100473.42;1603805;88;21615;-77
2021/01/19 00:38:49;;;;;;;18.23;11.88;;;;;;;0.13;86.41;100466.03;1603774;89;21178;-77
2021/01/19 00:41:15;;;;;;;13.93;10.18;;;;;;;0.14;86.45;100469.48;1599873;89;21617;-78
2021/01/19 00:43:42;;;;;;;15.55;10.48;;;;;;;0.12;86.50;100469.58;1603774;88;21236;-78
2021/01/19 00:46:08;;;;;;;12.82;8.10;;;;;;;0.12;86.53;100472.20;1603963;89;21631;-78
2021/01/19 00:48:35;;;;;;;14.87;8.90;;;;;;;0.13;86.56;100469.95;1603525;89;22124;-78
2021/01/19 00:51:01;;;;;;;12.98;8.35;;;;;;;0.13;86.62;100475.20;1599616;89;21190;-78
2021/01/19 00:53:27;;;;;;;13.10;9.13;;;;;;;0.14;86.63;100470.30;1594397;89;21163;-78
2021/01/19 00:55:54;;;;;;;12.18;8.73;;;;;;;0.15;86.67;100469.38;1595202;89;21190;-78
2021/01/19 00:58:20;;;;;;;15.72;11.33;;;;;;;0.15;86.70;100467.22;1599260;89;21690;-79
2021/01/19 01:00:47;;;;;;;15.23;11.63;;;;;;;0.13;86.73;100469.95;1595783;88;22171;-79
2021/01/19 01:03:14;;;;;;;14.75;10.30;;;;;;;0.13;86.76;100459.47;1575145;88;21198;-79
2021/01/19 01:05:41;;;;;;;14.03;9.55;;;;;;;0.14;86.80;100465.06;1594336;89;21183;-79
2021/01/19 01:08:07;;;;;;;12.63;8.90;;;;;;;0.12;86.83;100464.34;1593973;89;21250;-79
2021/01/19 01:10:33;;;;;;;15.23;9.50;;;;;;;0.13;86.87;100459.94;1599264;88;21198;-80
2021/01/19 01:13:00;;;;;;;11.57;8.43;;;;;;;0.12;86.90;100463.02;1599170;88;21234;-80
2021/01/19 01:15:35;;;;;;;15.13;10.28;;;;;;;0.11;86.90;100458.71;1592500;89;21214;-80
2021/01/19 01:18:01;;;;;;;14.13;10.03;;;;;;;0.12;86.94;100456.94;1594013;88;21210;-80
2021/01/19 01:20:27;;;;;;;14.38;10.05;;;;;;;0.10;86.99;100454.44;1594810;88;21235;-80
2021/01/19 01:22:54;;;;;;;14.23;9.30;;;;;;;0.09;87.02;100451.91;1599706;88;21190;-79
2021/01/19 01:25:21;;;;;;;14.15;10.98;;;;;;;0.09;87.05;100454.05;1595099;89;21342;-79
2021/01/19 01:27:47;;;;;;;13.50;10.32;;;;;;;0.08;87.07;100449.75;1599127;89;21233;-79
2021/01/19 01:30:15;;;;;;;19.85;13.45;;;;;;;0.08;87.13;100453.67;1593700;89;21226;-79
2021/01/19 01:32:50;;;;;;;17.12;10.63;;;;;;;0.08;87.16;100455.45;1594564;89;21686;-80
2021/01/19 01:35:19;;;;;;;17.00;10.13;;;;;;;0.07;87.17;100450.67;1594205;88;21646;-80
2021/01/19 01:37:54;;;;;;;16.60;10.23;;;;;;;0.09;87.20;100450.59;1599534;88;22373;-81
2021/01/19 01:40:22;;;;;;;19.05;11.45;;;;;;;0.10;87.23;100454.44;1592567;89;21203;-81
2021/01/19 01:42:56;;;;;;;14.78;10.00;;;;;;;0.10;87.26;100441.33;1599268;88;21211;-81
2021/01/19 01:45:24;;;;;;;17.77;10.98;;;;;;;0.11;87.28;100449.53;1595490;89;21159;-81
2021/01/19 01:47:52;;;;;;;17.75;9.35;;;;;;;0.14;87.32;100442.77;1599198;89;21189;-81
2021/01/19 01:50:18;;;;;;;16.73;11.35;;;;;;;0.16;87.34;100436.97;1570821;89;22144;-81
2021/01/19 01:52:45;;;;;;;15.75;11.57;;;;;;;0.19;87.39;100436.77;1603791;88;21599;-80
2021/01/19 01:55:12;;;;;;;14.00;10.00;;;;;;;0.23;87.39;100435.62;1604020;89;21226;-81
2021/01/19 01:57:39;;;;;;;19.67;12.55;;;;;;;0.26;87.42;100430.16;1603892;89;21202;-80
2021/01/19 02:00:08;;;;;;;17.00;11.65;;;;;;;0.27;87.49;100423.98;1603902;89;21238;-81
2021/01/19 02:02:35;;;;;;;14.87;10.08;;;;;;;0.30;87.49;100429.02;1603448;88;22111;-81
2021/01/19 02:05:03;;;;;;;15.83;11.48;;;;;;;0.32;87.52;100423.18;1599823;88;21211;-81
2021/01/19 02:07:35;;;;;;;13.00;8.60;;;;;;;0.35;87.54;100422.97;1599957;88;21687;-80
2021/01/19 02:10:25;;;;;;;15.08;8.85;;;;;;;0.38;87.57;100428.03;1586015;89;21178;-80
2021/01/19 02:13:15;;;;;;;;;;;;;;;0.41;87.59;100426.97;1605911;88;21269;-80
2021/01/19 02:15:48;;;;;;;13.03;7.35;;;;;;;0.44;87.64;100423.67;1603796;89;21387;-80
2021/01/19 02:18:35;;;;;;;15.83;10.98;;;;;;;0.44;87.68;100422.36;1599860;89;21222;-80
2021/01/19 02:21:30;;;;;;;11.75;9.90;;;;;;;0.45;87.70;100424.05;1584066;88;21194;-79
2021/01/19 02:24:21;;;;;;;16.67;11.45;;;;;;;0.47;87.75;100420.83;1603841;88;21193;-80
2021/01/19 02:27:20;;;;;;;11.83;7.97;;;;;;;0.50;87.76;100423.70;1602352;88;21234;-79
2021/01/19 02:30:16;;;;;;;10.73;7.67;;;;;;;0.50;87.79;100411.44;1526477;92;22194;-79
2021/01/19 02:33:11;;;;;;;9.90;7.10;;;;;;;0.54;87.83;100417.31;1599662;88;22369;-80
2021/01/19 02:35:57;;;;;;;9.05;6.47;;;;;;;0.56;87.87;100425.09;1606358;88;21608;-80
2021/01/19 02:38:49;;;;;;;11.12;7.50;;;;;;;0.55;87.89;100424.71;1599554;88;21207;-80
2021/01/19 02:41:17;;;;;;;10.10;7.75;;;;;;;0.56;87.95;100427.71;1599903;88;21178;-80
2021/01/19 02:43:45;;;;;;;12.93;9.05;;;;;;;0.57;87.95;100420.19;1599800;88;22147;-79
2021/01/19 02:46:11;;;;;;;10.48;8.55;;;;;;;0.56;87.97;100425.09;1542715;89;21195;-80
2021/01/19 02:48:37;;;;;;;11.88;9.60;;;;;;;0.54;88.00;100423.87;1603648;88;21186;-80
2021/01/19 02:51:04;;;;;;;11.78;8.90;;;;;;;0.54;88.02;100421.71;1599869;89;21183;-80
2021/01/19 02:53:30;;;;;;;14.58;11.40;;;;;;;0.54;88.04;100424.34;1603609;89;21194;-80
2021/01/19 02:55:56;;;;;;;11.75;8.65;;;;;;;0.55;88.05;100429.96;1603865;88;22507;-79
2021/01/19 02:58:45;;;;;;;10.58;7.20;;;;;;;0.51;88.08;100426.70;1599653;88;21210;-80
2021/01/19 03:01:22;;;;;;;11.43;8.28;;;;;;;0.50;88.09;100435.05;1599916;89;21213;-80
2021/01/19 03:03:49;;;;;;;10.15;8.30;;;;;;;0.48;88.12;100425.61;1599873;88;21174;-80
2021/01/19 03:06:20;;;;;;;9.70;7.30;;;;;;;0.46;88.14;100432.26;1603550;89;21222;-80
2021/01/19 03:08:47;;;;;;;9.98;7.30;;;;;;;0.44;88.15;100424.98;1599816;88;21266;-80
2021/01/19 03:11:17;;;;;;;8.63;7.70;;;;;;;0.43;88.19;100425.91;1603718;88;21198;-80
2021/01/19 03:13:47;;;;;;;13.80;12.28;;;;;;;0.44;88.21;100424.98;1600002;89;21194;-80
2021/01/19 03:16:17;;;;;;;12.13;9.05;;;;;;;0.46;88.21;100424.39;1603816;89;21248;-80
2021/01/19 03:18:46;;;;;;;15.50;12.80;;;;;;;0.47;88.24;100423.92;1604026;88;21998;-80
2021/01/19 03:21:13;;;;;;;13.33;11.13;;;;;;;0.48;88.27;100423.83;1600143;89;21237;-80
2021/01/19 03:23:39;;;;;;;11.28;8.80;;;;;;;0.49;88.27;100426.80;1603594;89;21174;-79
2021/01/19 03:26:06;;;;;;;9.05;7.62;;;;;;;0.52;88.31;100418.37;1603895;89;21234;-79
2021/01/19 03:28:33;;;;;;;8.20;6.67;;;;;;;0.54;88.30;100421.71;1603549;89;21158;-80
2021/01/19 03:31:01;;;;;;;9.33;7.08;;;;;;;0.56;88.33;100422.47;1599821;89;21244;-79
2021/01/19 03:33:27;;;;;;;8.68;6.22;;;;;;;0.57;88.35;100414.47;1599745;89;21269;-79
2021/01/19 03:35:53;;;;;;;9.50;6.70;;;;;;;0.57;88.38;100416.25;1603556;88;21218;-79
2021/01/19 03:38:20;;;;;;;9.25;7.95;;;;;;;0.57;88.37;100408.38;1603841;89;21222;-79
2021/01/19 03:40:46;;;;;;;15.38;10.30;;;;;;;0.58;88.42;100410.06;1603671;89;21246;-79
2021/01/19 03:43:13;;;;;;;13.85;10.05;;;;;;;0.57;88.42;100414.47;1599830;89;21187;-79
2021/01/19 03:45:39;;;;;;;10.30;7.95;;;;;;;0.59;88.44;100417.84;1599729;89;21644;-79
2021/01/19 03:48:07;;;;;;;9.80;7.53;;;;;;;0.61;88.44;100418.56;1603846;89;21219;-79
2021/01/19 03:50:33;;;;;;;9.33;7.28;;;;;;;0.62;88.47;100415.00;1602992;89;21258;-80
2021/01/19 03:52:59;;;;;;;9.25;5.97;;;;;;;0.62;88.47;100409.75;1583633;89;21575;-79
2021/01/19 03:55:30;;;;;;;7.00;5.58;;;;;;;0.63;88.49;100413.22;1583762;89;21177;-79
2021/01/19 03:57:57;;;;;;;9.33;6.97;;;;;;;0.63;88.50;100406.66;1583729;89;21666;-79
2021/01/19 04:00:24;;;;;;;11.60;7.72;;;;;;;0.64;88.51;100410.94;1583747;90;21202;-79
2021/01/19 04:02:50;;;;;;;13.03;8.65;;;;;;;0.63;88.52;100407.98;1583529;89;21651;-79
2021/01/19 04:05:17;;;;;;;12.37;9.58;;;;;;;0.61;88.53;100404.13;1583735;89;21261;-79
2021/01/19 04:07:43;;;;;;;11.18;8.15;;;;;;;0.61;88.55;100409.84;1583665;89;21165;-80
2021/01/19 04:10:12;;;;;;;13.15;9.68;;;;;;;0.63;88.59;100413.22;1583727;89;22195;-80
2021/01/19 04:12:38;;;;;;;13.35;9.68;;;;;;;0.65;88.59;100408.69;1583720;90;21198;-80
2021/01/19 04:15:06;;;;;;;9.85;8.03;;;;;;;0.65;88.60;100418.72;1583608;89;21648;-80
2021/01/19 04:17:32;;;;;;;10.63;7.90;;;;;;;0.66;88.61;100414.31;1583601;89;21219;-80
2021/01/19 04:19:59;;;;;;;12.40;7.47;;;;;;;0.66;88.64;100411.23;1583497;90;21182;-80
2021/01/19 04:22:26;;;;;;;9.85;6.70;;;;;;;0.68;88.64;100395.36;1583782;90;21296;-80
2021/01/19 04:24:52;;;;;;;11.28;6.95;;;;;;;0.70;88.66;100401.35;1583622;89;21236;-80
2021/01/19 04:27:19;;;;;;;11.08;7.60;;;;;;;0.69;88.66;100400.98;1583624;89;21255;-80
2021/01/19 04:29:46;;;;;;;10.70;7.15;;;;;;;0.69;88.67;100397.05;1583798;90;21199;-80
2021/01/19 04:32:13;;;;;;;10.75;6.97;;;;;;;0.69;88.69;100402.29;1583427;89;21615;-80
2021/01/19 04:34:39;;;;;;;10.55;7.45;;;;;;;0.69;88.71;100405.76;1583844;89;21230;-80
2021/01/19 04:37:06;;;;;;;11.75;8.15;;;;;;;0.71;88.73;100405.63;1583094;90;21614;-80
2021/01/19 04:39:32;;;;;;;12.18;8.95;;;;;;;0.72;88.73;100409.48;1583670;89;21275;-80
2021/01/19 04:41:58;;;;;;;11.35;8.45;;;;;;;0.73;88.74;100407.70;1583636;90;21195;-80
2021/01/19 04:44:26;;;;;;;13.70;9.38;;;;;;;0.74;88.75;100408.07;1583778;89;21198;-80
2021/01/19 04:46:53;;;;;;;12.53;8.73;;;;;;;0.74;88.76;100408.88;1564672;90;22183;-80
2021/01/19 04:49:20;;;;;;;15.70;9.28;;;;;;;0.73;88.76;100405.91;1583657;89;21242;-80
2021/01/19 04:51:47;;;;;;;12.23;7.53;;;;;;;0.74;88.77;100406.76;1589704;88;21243;-80
2021/01/19 04:54:18;;;;;;;11.48;7.28;;;;;;;0.74;88.80;100404.95;1594094;89;21167;-80
2021/01/19 04:56:56;;;;;;;12.70;8.20;;;;;;;0.74;88.82;100406.76;1595165;89;21711;-80
2021/01/19 04:59:24;;;;;;;10.93;8.08;;;;;;;0.74;88.81;100406.76;1599006;88;21281;-80
2021/01/19 05:02:02;;;;;;;18.45;10.85;;;;;;;0.76;88.83;100406.16;1599413;88;21640;-79
2021/01/19 05:07:33;;;;;;;18.30;10.90;;;;;;;0.82;88.88;100404.41;1810483;78;23098;-79
2021/01/19 05:10:13;;;;;;;17.27;12.73;;;;;;;0.76;88.89;100404.85;1796604;79;21108;-79
2021/01/19 05:12:44;;;;;;;18.77;11.63;;;;;;;0.77;88.88;100407.85;1796956;79;26356;-79
2021/01/19 05:15:14;;;;;;;16.93;10.10;;;;;;;0.77;88.88;100406.07;1796735;79;21191;-80
2021/01/19 05:17:41;;;;;;;17.23;9.63;;;;;;;0.78;88.89;100409.51;1796977;79;21183;-80
2021/01/19 05:20:09;;;;;;;13.53;9.68;;;;;;;0.78;88.86;100412.13;1796821;79;21144;-80
2021/01/19 05:22:36;;;;;;;15.93;11.03;;;;;;;0.79;88.88;100410.73;1796774;79;21128;-80
2021/01/19 05:25:04;;;;;;;23.40;12.93;;;;;;;0.81;88.89;100405.38;1796542;79;21644;-80
2021/01/19 05:27:30;;;;;;;15.43;9.48;;;;;;;0.81;88.90;100401.45;1796955;79;21193;-80
2021/01/19 05:30:08;;;;;;;19.17;12.18;;;;;;;0.81;88.91;100402.76;1796551;79;21147;-80
2021/01/19 05:32:39;;;;;;;19.73;11.85;;;;;;;0.81;88.93;100404.07;1796742;79;21584;-80
2021/01/19 05:35:18;;;;;;;19.42;12.35;;;;;;;0.81;88.91;100398.82;1796344;79;21147;-81
2021/01/19 05:37:56;;;;;;;16.30;10.00;;;;;;;0.80;88.93;100401.91;1763321;79;21623;-80
2021/01/19 05:40:24;;;;;;;16.75;9.98;;;;;;;0.81;88.94;100404.07;1795054;79;21128;-81
2021/01/19 05:42:52;;;;;;;16.40;9.25;;;;;;;0.82;88.93;100403.10;1796382;79;21151;-80
2021/01/19 05:45:18;;;;;;;13.98;8.33;;;;;;;0.82;88.95;100401.78;1796794;79;21207;-80
2021/01/19 05:47:46;;;;;;;14.43;9.03;;;;;;;0.82;88.95;100403.10;1796671;79;21144;-80
2021/01/19 05:50:13;;;;;;;17.23;10.18;;;;;;;0.81;88.97;100404.07;1795244;79;21573;-80
2021/01/19 05:52:41;;;;;;;20.32;12.37;;;;;;;0.83;88.99;100407.41;1794898;80;21596;-80
2021/01/19 05:55:09;;;;;;;18.65;12.20;;;;;;;0.82;89.00;100410.98;1794835;80;21123;-80
2021/01/19 05:57:35;;;;;;;17.50;10.82;;;;;;;0.82;89.03;100409.66;1794960;79;21175;-80
2021/01/19 06:00:04;;;;;;;16.07;10.60;;;;;;;0.82;89.01;100405.73;1794830;80;21134;-80
2021/01/19 06:02:38;;;;;;;13.22;9.15;;;;;;;0.81;89.01;100411.44;1794720;79;21283;-80
2021/01/19 06:05:12;;;;;;;22.48;11.08;;;;;;;0.81;89.02;100410.13;1794691;79;21159;-79
2021/01/19 06:07:39;;;;;;;16.55;10.10;;;;;;;0.80;89.04;100412.41;1776466;80;21148;-80
2021/01/19 06:10:15;;;;;;;12.68;8.60;;;;;;;0.81;89.05;100413.26;1774922;80;21706;-80
2021/01/19 06:12:42;;;;;;;15.08;8.70;;;;;;;0.81;89.05;100408.01;1774909;80;21233;-80
2021/01/19 06:15:09;;;;;;;12.98;8.83;;;;;;;0.82;89.06;100408.35;1774878;80;21137;-80
2021/01/19 06:17:36;;;;;;;13.88;10.10;;;;;;;0.83;89.08;100408.73;1774473;80;21181;-80
2021/01/19 06:20:05;;;;;;;17.92;10.70;;;;;;;0.83;89.09;100404.78;1774308;80;21175;-80
2021/01/19 06:22:32;;;;;;;13.48;8.95;;;;;;;0.80;89.08;100405.85;1774476;80;21180;-80
2021/01/19 06:25:01;;;;;;;15.43;10.35;;;;;;;0.81;89.10;100409.31;1774564;80;21164;-80
2021/01/19 06:27:30;;;;;;;20.40;10.37;;;;;;;0.79;89.11;100405.95;1774661;80;21212;-80
2021/01/19 06:30:07;;;;;;;18.10;9.75;;;;;;;0.78;89.12;100406.41;1774127;80;21168;-80
2021/01/19 06:32:47;;;;;;;12.47;7.65;;;;;;;0.78;89.13;100402.95;1774438;80;21221;-80
2021/01/19 06:35:21;;;;;;;13.00;7.75;;;;;;;0.79;89.12;100400.23;1774256;80;21164;-79
2021/01/19 06:37:50;;;;;;;16.42;7.60;;;;;;;0.80;89.13;100405.01;1774371;80;21161;-80
2021/01/19 06:40:20;;;;;;;13.95;8.23;;;;;;;0.81;89.14;100406.70;1774054;80;21633;-80
2021/01/19 06:43:02;;;;;;;14.68;7.92;;;;;;;0.82;89.13;100408.35;1774191;80;21156;-80
2021/01/19 06:45:30;;;;;;;13.78;7.67;;;;;;;0.84;89.15;100409.09;1766664;80;21192;-80
2021/01/19 06:47:58;;;;;;;13.70;8.43;;;;;;;0.84;89.16;100403.84;1756448;80;21135;-80
2021/01/19 06:50:30;;;;;;;18.25;9.85;;;;;;;0.85;89.18;100413.37;1756560;80;21208;-80
2021/01/19 06:53:19;;;;;;;24.20;12.15;;;;;;;0.83;89.17;100410.03;1751006;80;21253;-80
2021/01/19 06:56:00;;;;;;;19.45;10.20;;;;;;;0.81;89.19;100404.07;1743330;80;21606;-80
2021/01/19 06:58:56;;;;;;;14.05;8.88;;;;;;;0.81;89.20;100406.70;1742313;80;21200;-80
2021/01/19 07:01:28;;;;;;;14.45;9.13;;;;;;;0.80;89.21;100411.10;1765332;80;21135;-80
2021/01/19 07:04:14;;;;;;;17.25;8.88;;;;;;;0.81;89.20;100411.94;1767565;80;21176;-80
2021/01/19 07:06:54;;;;;;;13.28;9.28;;;;;;;0.81;89.21;100410.13;1763308;80;22175;-80
2021/01/19 07:10:09;;;;;;;14.45;8.73;;;;;;;0.83;89.22;100407.41;1761624;81;21176;-80
2021/01/19 07:12:59;;;;;;;12.35;8.68;;;;;;;0.84;89.21;100407.31;1772057;81;21144;-80
2021/01/19 07:15:46;;;;;;;;;;;;;;;0.85;89.23;100397.16;1775023;81;21121;-79
2021/01/19 07:19:00;;;;;;;14.50;9.35;;;;;;;0.88;89.25;100396.13;1772461;81;20247;-80
2021/01/19 07:22:00;;;;;;;17.48;10.05;;;;;;;0.88;89.26;100390.88;1772443;81;21271;-79
2021/01/19 07:24:27;;;;;;;16.80;10.38;;;;;;;0.88;89.26;100386.94;1772416;81;21735;-79
2021/01/19 07:26:53;;;;;;;20.37;11.95;;;;;;;0.88;89.28;100381.69;1772072;81;21123;-79
2021/01/19 07:29:20;;;;;;;20.05;11.22;;;;;;;0.88;89.29;100375.13;1772283;80;21140;-79
2021/01/19 07:31:47;;;;;;;19.25;10.85;;;;;;;0.87;89.29;100379.53;1772465;81;21584;-79
2021/01/19 07:34:13;;;;;;;18.42;10.63;;;;;;;0.90;89.29;100374.53;1772299;81;21273;-79
2021/01/19 07:36:39;;;;;;;22.32;11.45;;;;;;;0.91;89.30;100373.13;1772542;80;21554;-78
2021/01/19 07:39:15;;;;;;;21.12;11.12;;;;;;;0.94;89.29;100376.00;1772437;81;21149;-78
2021/01/19 07:41:41;;;;;;;18.62;10.60;;;;;;;0.98;89.30;100374.83;1772185;81;21188;-79
2021/01/19 07:44:10;;;;;;;18.35;10.13;;;;;;;1.01;89.28;100370.67;1772412;81;21152;-78
2021/01/19 07:46:36;;;;;;;18.95;10.58;;;;;;;1.04;89.30;100370.92;1744618;81;21280;-78
2021/01/19 07:49:05;;;;;;;21.00;12.75;;;;;;;1.03;89.31;100364.82;1772276;81;21164;-78
2021/01/19 07:51:42;;;;;;;25.08;12.98;;;;;;;1.00;89.32;100364.58;1772607;80;21228;-79
2021/01/19 07:54:11;;;;;;;24.15;13.95;;;;;;;1.02;89.33;100363.17;1772522;80;21621;-79
2021/01/19 07:56:37;;;;;;;26.07;15.72;;;;;;;1.02;89.33;100359.70;1772511;80;21171;-78
2021/01/19 07:59:15;;;;;;;29.27;16.60;;;;;;;1.03;89.35;100360.88;1772161;81;21205;-79
2021/01/19 08:01:41;;;;;;;20.50;12.68;;;;;;;1.05;89.35;100368.19;1772269;80;21180;-79
2021/01/19 08:04:13;;;;;;;27.22;14.55;;;;;;;1.07;89.34;100370.22;1772459;81;21565;-79
2021/01/19 08:06:42;;;;;;;29.15;15.78;;;;;;;1.09;89.36;100371.44;1775182;80;21124;-79
2021/01/19 08:09:16;;;;;;;21.67;13.57;;;;;;;1.10;89.34;100371.31;1785907;80;21123;-79
2021/01/19 08:11:51;;;;;;;25.97;12.90;;;;;;;1.13;89.34;100368.45;1785730;80;21581;-78
2021/01/19 08:14:17;;;;;;;35.08;18.45;;;;;;;1.17;89.36;100363.35;1785363;80;21658;-79
2021/01/19 08:16:47;;;;;;;35.52;20.72;;;;;;;1.18;89.32;100361.09;1785280;80;21187;-79
2021/01/19 08:19:14;;;;;;;37.03;16.67;;;;;;;1.22;89.36;100363.88;1785651;80;21204;-78
2021/01/19 08:21:52;;;;;;;28.40;13.72;;;;;;;1.27;89.36;100363.05;1785738;80;21147;-79
2021/01/19 08:24:20;;;;;;;32.98;14.30;;;;;;;1.27;89.38;100345.97;1785840;80;21207;-78
2021/01/19 08:26:47;;;;;;;25.97;14.10;;;;;;;1.29;89.36;100351.97;1785416;80;21159;-78
2021/01/19 08:29:17;;;;;;;24.05;15.23;;;;;;;1.30;89.37;100349.68;1785555;80;21179;-78
2021/01/19 08:31:46;;;;;;;20.65;12.75;;;;;;;1.31;89.36;100342.17;1784717;80;21152;-79
2021/01/19 08:34:14;;;;;;;18.35;10.72;;;;;;;1.35;89.39;100339.69;1753347;80;21167;-78
2021/01/19 08:36:41;;;;;;;16.50;8.70;;;;;;;1.37;89.37;100333.02;1778738;80;21632;-78
2021/01/19 08:39:09;;;;;;;22.10;11.45;;;;;;;1.39;89.35;100322.75;1785688;80;21174;-78
2021/01/19 08:41:41;;;;;;;17.75;10.80;;;;;;;1.43;89.36;100326.83;1785710;80;21200;-79
2021/01/19 08:44:08;;;;;;;16.82;9.95;;;;;;;1.44;89.36;100317.98;1785428;80;21604;-78
2021/01/19 08:46:34;;;;;;;21.30;12.15;;;;;;;1.46;89.36;100318.72;1785636;80;21199;-79
2021/01/19 08:49:03;;;;;;;20.92;13.65;;;;;;;1.51;89.34;100320.52;1753001;80;21211;-79
2021/01/19 08:51:29;;;;;;;17.60;11.18;;;;;;;1.53;89.34;100313.00;1785643;80;21152;-79
2021/01/19 08:53:56;;;;;;;35.75;19.73;;;;;;;1.57;89.36;100317.08;1785607;80;21627;-79
2021/01/19 08:56:24;;;;;;;42.85;22.90;;;;;;;1.60;89.34;100314.22;1785517;80;21194;-79
2021/01/19 08:58:53;;;;;;;35.58;20.77;;;;;;;1.61;89.36;100318.05;1785798;80;21572;-78
2021/01/19 09:01:20;;;;;;;38.80;22.17;;;;;;;1.66;89.33;100316.38;1778463;80;21274;-79
2021/01/19 09:04:01;;;;;;;38.00;23.55;;;;;;;1.71;89.31;100316.88;1785586;80;21192;-79
2021/01/19 09:06:32;;;;;;;20.23;12.80;;;;;;;1.74;89.33;100316.64;1785229;80;21289;-79
2021/01/19 09:09:00;;;;;;;23.47;14.30;;;;;;;1.79;89.31;100307.95;1774281;80;21585;-78
2021/01/19 09:11:33;;;;;;;36.35;21.77;;;;;;;1.83;89.27;100313.34;1774410;80;21168;-78
2021/01/19 09:14:07;;;;;;;55.78;28.20;;;;;;;1.85;89.25;100308.78;1773079;80;21264;-79
2021/01/19 09:16:34;;;;;;;39.10;23.70;;;;;;;1.87;89.24;100305.55;1774274;80;21695;-78
2021/01/19 09:19:03;;;;;;;34.08;19.65;;;;;;;1.88;89.25;100299.34;1774204;80;21152;-79
2021/01/19 09:21:29;;;;;;;30.05;12.58;;;;;;;1.94;89.26;100294.92;1774298;80;21143;-79
2021/01/19 09:23:56;;;;;;;26.25;15.13;;;;;;;1.93;89.22;100291.48;1774300;80;21581;-78
2021/01/19 09:26:22;;;;;;;29.10;15.05;;;;;;;1.94;89.20;100293.14;1774321;80;21204;-79
2021/01/19 09:28:49;;;;;;;24.02;13.38;;;;;;;1.96;89.17;100284.67;1774221;80;21503;-79
2021/01/19 09:31:21;;;;;;;18.00;10.25;;;;;;;2.01;89.15;100289.55;1773884;80;21188;-79
2021/01/19 09:33:52;;;;;;;28.55;15.45;;;;;;;2.08;89.14;100282.86;1774243;80;21205;-78
2021/01/19 09:36:19;;;;;;;31.15;15.50;;;;;;;2.14;89.13;100283.73;1774064;80;21160;-78
2021/01/19 09:38:48;;;;;;;34.45;17.02;;;;;;;2.19;89.11;100278.92;1774198;80;22049;-78
2021/01/19 09:41:26;;;;;;;24.82;14.15;;;;;;;2.28;89.12;100278.22;1774183;80;21155;-78
2021/01/19 09:43:55;;;;;;;24.92;12.60;;;;;;;2.32;89.11;100277.00;1774188;80;21640;-78
2021/01/19 09:46:24;;;;;;;19.17;12.10;;;;;;;2.32;89.06;100271.73;1774358;80;21165;-78
2021/01/19 09:48:52;;;;;;;16.42;9.78;;;;;;;2.36;89.04;100262.66;1774198;80;21136;-79
2021/01/19 09:51:28;;;;;;;13.53;7.47;;;;;;;2.38;89.01;100266.02;1774229;80;21251;-78
2021/01/19 09:53:55;;;;;;;17.57;9.48;;;;;;;2.39;89.00;100257.14;1774398;80;21160;-78
2021/01/19 09:56:22;;;;;;;30.85;13.65;;;;;;;2.43;88.98;100257.27;1774322;80;21152;-78
2021/01/19 09:58:48;;;;;;;31.10;15.58;;;;;;;2.50;88.95;100243.13;1774434;80;21151;-78
2021/01/19 10:01:22;;;;;;;82.70;37.17;;;;;;;2.56;88.90;100240.50;1774431;80;21553;-78
2021/01/19 10:03:49;;;;;;;47.45;22.37;;;;;;;2.68;88.86;100239.50;1774593;80;21259;-78
2021/01/19 10:06:20;;;;;;;50.15;25.60;;;;;;;2.69;88.87;100230.18;1774289;80;21156;-78
2021/01/19 10:08:51;;;;;;;27.52;14.93;;;;;;;2.76;88.83;100225.25;1783867;80;21680;-78
2021/01/19 10:11:27;;;;;;;20.52;12.43;;;;;;;2.75;88.79;100215.67;1785281;80;21183;-78
2021/01/19 10:13:54;;;;;;;13.38;8.70;;;;;;;2.76;88.79;100216.87;1785486;80;21557;-79
2021/01/19 10:16:27;;;;;;;16.85;11.50;;;;;;;2.78;88.77;100207.55;1785681;80;21198;-79
2021/01/19 10:18:55;;;;;;;8.58;6.33;;;;;;;2.77;88.76;100216.40;1785430;80;21150;-78
2021/01/19 10:21:29;;;;;;;9.00;6.92;;;;;;;2.79;88.74;100214.46;1785817;80;21201;-78
2021/01/19 10:23:57;;;;;;;12.23;7.42;;;;;;;2.78;88.70;100207.55;1785654;80;21600;-78
2021/01/19 10:26:29;;;;;;;16.07;9.03;;;;;;;2.83;88.65;100200.09;1785714;80;21175;-78
2021/01/19 10:28:57;;;;;;;14.55;9.53;;;;;;;2.90;88.60;100201.26;1784927;80;21207;-78
2021/01/19 10:31:27;;;;;;;11.22;7.55;;;;;;;2.93;88.57;100199.69;1785662;80;21139;-78
2021/01/19 10:34:02;;;;;;;;;;;;;;;2.97;88.53;100198.48;1788536;80;21133;-78
2021/01/19 10:36:31;;;;;;;13.20;7.83;;;;;;;3.03;88.50;100184.79;1785615;80;20650;-79
2021/01/19 10:39:07;;;;;;;29.15;14.33;;;;;;;3.09;88.51;100182.98;1786061;80;21172;-79
2021/01/19 10:41:34;;;;;;;14.20;8.10;;;;;;;3.16;88.50;100183.31;1785707;80;21833;-79
2021/01/19 10:44:02;;;;;;;32.95;16.55;;;;;;;3.17;88.46;100184.48;1785649;80;21171;-79
2021/01/19 10:46:31;;;;;;;17.73;8.55;;;;;;;3.21;88.44;100187.22;1785820;80;21115;-79
2021/01/19 10:49:03;;;;;;;18.10;8.35;;;;;;;3.26;88.42;100169.71;1785459;79;21172;-79
2021/01/19 10:51:31;;;;;;;15.43;8.78;;;;;;;3.29;88.36;100168.97;1785271;80;21596;-79
2021/01/19 10:54:03;;;;;;;20.65;10.53;;;;;;;3.35;88.33;100170.24;1785584;80;21616;-79
2021/01/19 10:56:31;;;;;;;29.77;13.75;;;;;;;3.40;88.33;100170.22;1785390;80;21204;-79
2021/01/19 10:58:58;;;;;;;16.48;8.65;;;;;;;3.41;88.33;100173.19;1785375;80;21152;-79
2021/01/19 11:01:26;;;;;;;20.80;10.70;;;;;;;3.41;88.31;100167.92;1785217;80;21886;-79
2021/01/19 11:03:54;;;;;;;19.45;11.20;;;;;;;3.39;88.27;100163.75;1785297;80;21630;-79
2021/01/19 11:06:21;;;;;;;14.87;8.23;;;;;;;3.45;88.25;100164.06;1785554;80;21215;-79
2021/01/19 11:08:49;;;;;;;15.08;8.88;;;;;;;3.46;88.23;100156.99;1785716;80;21179;-79
2021/01/19 11:11:16;;;;;;;17.95;9.13;;;;;;;3.39;88.19;100144.83;1785740;80;21581;-79
2021/01/19 11:13:43;;;;;;;15.35;9.90;;;;;;;3.44;88.18;100141.33;1785739;80;21233;-79
2021/01/19 11:16:10;;;;;;;19.70;10.70;;;;;;;3.45;88.16;100142.97;1785706;80;21112;-79
2021/01/19 11:18:38;;;;;;;16.48;9.30;;;;;;;3.41;88.12;100133.66;1785769;80;21207;-80
2021/01/19 11:21:05;;;;;;;18.17;9.45;;;;;;;3.48;88.15;100122.94;1785691;80;21176;-79
2021/01/19 11:23:32;;;;;;;17.27;8.70;;;;;;;3.58;88.12;100115.58;1785665;80;21576;-79
2021/01/19 11:26:00;;;;;;;13.72;7.22;;;;;;;3.57;88.08;100111.27;1785663;80;21212;-79
2021/01/19 11:28:27;;;;;;;18.62;9.68;;;;;;;3.47;88.05;100107.27;1785588;80;21124;-79
2021/01/19 11:30:54;;;;;;;18.42;9.00;;;;;;;3.45;88.01;100102.12;1785411;80;21957;-79
2021/01/19 11:33:22;;;;;;;34.38;17.45;;;;;;;3.45;87.94;100096.01;1785655;80;21235;-80
2021/01/19 11:35:49;;;;;;;21.23;11.35;;;;;;;3.47;87.92;100088.34;1785780;80;21548;-79
2021/01/19 11:38:17;;;;;;;17.40;10.40;;;;;;;3.48;87.91;100068.91;1785731;80;21152;-79
2021/01/19 11:40:44;;;;;;;40.43;16.97;;;;;;;3.53;87.86;100066.72;1785369;80;21132;-79